createdAt,value
2019-01-16T00:00:08.211Z,11.60
2019-01-16T00:01:08.165Z,12.10
2019-01-16T00:02:08.141Z,12.50
2019-01-16T00:03:08.106Z,13.20
2019-01-16T00:04:08.096Z,12.20
2019-01-16T00:05:08.065Z,12.90
2019-01-16T00:06:08.076Z,13.20
2019-01-16T00:07:08.028Z,13.20
2019-01-16T00:08:08.025Z,12.40
2019-01-16T00:09:07.984Z,13.50
2019-01-16T00:10:07.978Z,13.40
2019-01-16T00:11:07.944Z,13.10
2019-01-16T00:12:07.943Z,12.90
2019-01-16T00:13:07.902Z,13.30
2019-01-16T00:14:07.882Z,13.40
2019-01-16T00:15:07.910Z,13.10
2019-01-16T00:16:07.845Z,13.30
2019-01-16T00:17:07.834Z,13.80
2019-01-16T00:18:07.812Z,13.30
2019-01-16T00:19:07.774Z,12.60
2019-01-16T00:20:07.759Z,13.80
2019-01-16T00:21:07.743Z,12.80
2019-01-16T00:22:07.707Z,13.50
2019-01-16T00:23:07.707Z,12.30
2019-01-16T00:24:07.673Z,12.20
2019-01-16T00:25:07.645Z,12.20
2019-01-16T00:26:07.624Z,12.30
2019-01-16T00:27:07.606Z,11.70
2019-01-16T00:28:07.589Z,11.40
2019-01-16T00:29:07.580Z,12.20
2019-01-16T00:30:07.548Z,12.00
2019-01-16T00:31:07.529Z,11.90
2019-01-16T00:32:08.207Z,11.90
2019-01-16T00:33:08.228Z,11.40
2019-01-16T00:34:07.476Z,11.70
2019-01-16T00:35:07.435Z,12.20
2019-01-16T00:36:08.174Z,11.90
2019-01-16T00:37:07.395Z,11.40
2019-01-16T00:38:07.392Z,11.80
2019-01-16T00:39:07.353Z,12.00
2019-01-16T00:40:07.346Z,11.90
2019-01-16T00:41:07.319Z,11.40
2019-01-16T00:42:07.291Z,12.20
2019-01-16T00:43:07.275Z,11.80
2019-01-16T00:44:07.247Z,12.30
2019-01-16T00:45:07.248Z,12.20
2019-01-16T00:46:07.207Z,12.40
2019-01-16T00:47:07.242Z,12.10
2019-01-16T00:48:07.169Z,12.20
2019-01-16T00:49:07.150Z,11.80
2019-01-16T00:50:07.122Z,12.00
2019-01-16T00:51:08.175Z,11.90
2019-01-16T00:52:07.085Z,12.80
2019-01-16T00:53:07.063Z,12.40
2019-01-16T00:54:07.041Z,11.40
2019-01-16T00:55:07.021Z,11.40
2019-01-16T00:56:07.016Z,11.20
2019-01-16T00:57:06.977Z,11.30
2019-01-16T00:58:06.956Z,12.60
2019-01-16T00:59:06.997Z,11.00
2019-01-16T01:00:06.912Z,11.10
2019-01-16T01:01:06.913Z,11.10
2019-01-16T01:02:06.877Z,11.20
2019-01-16T01:03:06.850Z,12.10
2019-01-16T01:04:06.840Z,11.10
2019-01-16T01:05:06.808Z,11.20
2019-01-16T01:06:06.789Z,10.30
2019-01-16T01:07:06.778Z,10.40
2019-01-16T01:08:06.748Z,10.50
2019-01-16T01:09:07.301Z,11.00
2019-01-16T01:10:06.699Z,11.20
2019-01-16T01:11:06.679Z,10.50
2019-01-16T01:12:06.693Z,12.40
2019-01-16T01:13:06.647Z,10.50
2019-01-16T01:14:06.620Z,11.70
2019-01-16T01:15:06.597Z,11.00
2019-01-16T01:16:06.573Z,10.90
2019-01-16T01:17:06.557Z,10.10
2019-01-16T01:18:06.552Z,10.60
2019-01-16T01:19:06.510Z,10.20
2019-01-16T01:20:06.496Z,11.20
2019-01-16T01:21:06.471Z,10.60
2019-01-16T01:22:06.453Z,10.20
2019-01-16T01:23:06.461Z,10.00
2019-01-16T01:24:06.409Z,11.30
2019-01-16T01:25:06.388Z,10.60
2019-01-16T01:26:06.370Z,10.70
2019-01-16T01:27:06.349Z,10.50
2019-01-16T01:28:06.323Z,12.60
2019-01-16T01:29:06.317Z,10.80
2019-01-16T01:30:06.281Z,10.60
2019-01-16T01:31:06.262Z,10.10
2019-01-16T01:32:06.248Z,11.30
2019-01-16T01:33:06.215Z,9.80
2019-01-16T01:34:06.227Z,10.80
2019-01-16T01:35:06.175Z,10.40
2019-01-16T01:36:06.151Z,10.60
2019-01-16T01:37:06.145Z,9.90
2019-01-16T01:38:06.112Z,9.60
2019-01-16T01:39:06.089Z,10.20
2019-01-16T01:40:06.088Z,9.80
2019-01-16T01:41:06.051Z,11.30
2019-01-16T01:42:06.029Z,10.10
2019-01-16T01:43:06.014Z,10.00
2019-01-16T01:44:05.997Z,10.10
2019-01-16T01:45:06.001Z,11.90
2019-01-16T01:46:05.946Z,9.40
2019-01-16T01:47:05.920Z,10.00
2019-01-16T01:48:05.904Z,9.80
2019-01-16T01:49:05.882Z,9.60
2019-01-16T01:50:05.860Z,10.20
2019-01-16T01:51:05.856Z,10.20
2019-01-16T01:52:05.838Z,10.30
2019-01-16T01:53:05.802Z,11.30
2019-01-16T01:54:05.776Z,11.10
2019-01-16T01:55:05.755Z,9.90
2019-01-16T01:56:05.746Z,9.60
2019-01-16T01:57:05.748Z,9.60
2019-01-16T01:58:05.700Z,9.70
2019-01-16T01:59:05.673Z,10.30
2019-01-16T02:00:05.650Z,9.30
2019-01-16T02:01:05.636Z,9.10
2019-01-16T02:02:05.607Z,8.70
2019-01-16T02:03:05.606Z,9.50
2019-01-16T02:04:05.584Z,9.30
2019-01-16T02:05:05.542Z,8.50
2019-01-16T02:06:05.521Z,9.00
2019-01-16T02:07:05.503Z,9.00
2019-01-16T02:08:05.498Z,9.40
2019-01-16T02:09:05.459Z,9.60
2019-01-16T02:10:05.436Z,8.90
2019-01-16T02:11:05.432Z,8.90
2019-01-16T02:12:05.409Z,9.10
2019-01-16T02:13:05.404Z,8.60
2019-01-16T02:14:05.362Z,8.50
2019-01-16T02:15:05.334Z,9.00
2019-01-16T02:16:05.308Z,9.70
2019-01-16T02:17:05.296Z,7.90
2019-01-16T02:18:05.282Z,9.20
2019-01-16T02:19:05.246Z,8.30
2019-01-16T02:20:05.225Z,7.80
2019-01-16T02:21:05.204Z,7.70
2019-01-16T02:22:05.181Z,9.40
2019-01-16T02:23:05.179Z,7.80
2019-01-16T02:24:05.142Z,8.90
2019-01-16T02:25:05.117Z,7.70
2019-01-16T02:26:05.098Z,7.70
2019-01-16T02:27:05.078Z,7.40
2019-01-16T02:28:05.062Z,7.70
2019-01-16T02:29:05.051Z,7.70
2019-01-16T02:30:05.057Z,8.00
2019-01-16T02:31:04.990Z,7.70
2019-01-16T02:32:04.979Z,7.40
2019-01-16T02:33:04.956Z,7.60
2019-01-16T02:34:04.929Z,8.20
2019-01-16T02:35:04.911Z,7.60
2019-01-16T02:36:04.902Z,8.10
2019-01-16T02:37:04.868Z,7.50
2019-01-16T02:38:04.845Z,8.50
2019-01-16T02:39:04.822Z,7.60
2019-01-16T02:40:04.801Z,8.50
2019-01-16T02:41:04.804Z,7.60
2019-01-16T02:42:04.762Z,8.60
2019-01-16T02:43:04.757Z,7.30
2019-01-16T02:44:04.720Z,8.30
2019-01-16T02:45:04.699Z,7.80
2019-01-16T02:46:04.676Z,7.00
2019-01-16T02:47:04.663Z,8.20
2019-01-16T02:48:04.686Z,7.30
2019-01-16T02:49:04.634Z,7.90
2019-01-16T02:50:04.604Z,7.30
2019-01-16T02:51:04.578Z,7.60
2019-01-16T02:52:04.570Z,8.90
2019-01-16T02:53:04.589Z,7.70
2019-01-16T02:54:04.529Z,7.90
2019-01-16T02:55:04.489Z,7.90
2019-01-16T02:56:04.470Z,7.80
2019-01-16T02:57:04.463Z,8.80
2019-01-16T02:58:04.423Z,7.60
2019-01-16T02:59:04.406Z,8.20
2019-01-16T03:00:04.390Z,8.00
2019-01-16T03:01:04.369Z,8.70
2019-01-16T03:02:04.340Z,8.30
2019-01-16T03:03:04.354Z,7.70
2019-01-16T03:04:04.311Z,7.90
2019-01-16T03:05:04.280Z,8.20
2019-01-16T03:06:04.258Z,8.20
2019-01-16T03:07:04.238Z,7.30
2019-01-16T03:08:04.215Z,6.90
2019-01-16T03:09:04.225Z,9.10
2019-01-16T03:10:04.177Z,7.60
2019-01-16T03:11:04.153Z,8.70
2019-01-16T03:12:04.132Z,8.60
2019-01-16T03:13:04.113Z,8.90
2019-01-16T03:14:04.085Z,9.60
2019-01-16T03:15:04.086Z,7.60
2019-01-16T03:16:04.048Z,9.30
2019-01-16T03:17:04.030Z,8.80
2019-01-16T03:18:04.003Z,7.90
2019-01-16T03:19:04.733Z,8.00
2019-01-16T03:20:03.963Z,9.00
2019-01-16T03:21:03.958Z,9.00
2019-01-16T03:22:03.923Z,8.40
2019-01-16T03:23:03.903Z,9.30
2019-01-16T03:24:03.882Z,8.40
2019-01-16T03:25:03.861Z,7.80
2019-01-16T03:26:03.860Z,9.50
2019-01-16T03:27:03.818Z,8.90
2019-01-16T03:28:03.802Z,7.80
2019-01-16T03:29:03.771Z,9.50
2019-01-16T03:30:03.753Z,8.20
2019-01-16T03:31:03.755Z,8.50
2019-01-16T03:32:03.719Z,8.80
2019-01-16T03:33:03.690Z,7.90
2019-01-16T03:34:03.668Z,8.00
2019-01-16T03:35:03.648Z,8.90
2019-01-16T03:36:03.630Z,8.50
2019-01-16T03:37:03.622Z,8.50
2019-01-16T03:38:03.606Z,10.20
2019-01-16T03:39:03.562Z,9.00
2019-01-16T03:40:03.547Z,11.50
2019-01-16T03:41:03.519Z,9.20
2019-01-16T03:42:03.522Z,10.00
2019-01-16T03:43:03.490Z,8.70
2019-01-16T03:44:03.471Z,9.20
2019-01-16T03:45:03.436Z,9.40
2019-01-16T03:46:03.415Z,9.00
2019-01-16T03:47:03.395Z,10.60
2019-01-16T03:48:03.395Z,8.60
2019-01-16T03:49:03.359Z,9.40
2019-01-16T03:50:03.369Z,11.80
2019-01-16T03:51:03.309Z,9.40
2019-01-16T03:52:03.286Z,9.90
2019-01-16T03:53:03.272Z,9.40
2019-01-16T03:54:03.251Z,10.80
2019-01-16T03:55:03.225Z,9.70
2019-01-16T03:56:03.218Z,10.00
2019-01-16T03:57:03.187Z,9.80
2019-01-16T03:58:03.163Z,10.10
2019-01-16T03:59:03.139Z,9.30
2019-01-16T04:00:03.121Z,9.50
2019-01-16T04:01:03.137Z,10.40
2019-01-16T04:02:03.080Z,10.30
2019-01-16T04:03:03.745Z,9.60
2019-01-16T04:04:03.038Z,8.80
2019-01-16T04:05:03.014Z,9.30
2019-01-16T04:06:03.007Z,9.50
2019-01-16T04:07:02.976Z,9.50
2019-01-16T04:08:02.961Z,8.90
2019-01-16T04:09:02.948Z,8.50
2019-01-16T04:10:02.912Z,8.90
2019-01-16T04:11:02.887Z,10.40
2019-01-16T04:12:02.872Z,9.80
2019-01-16T04:13:02.863Z,10.00
2019-01-16T04:14:02.832Z,8.80
2019-01-16T04:15:03.703Z,8.90
2019-01-16T04:16:02.783Z,9.30
2019-01-16T04:17:02.759Z,8.80
2019-01-16T04:18:02.757Z,10.30
2019-01-16T04:19:02.718Z,8.90
2019-01-16T04:20:02.701Z,8.70
2019-01-16T04:21:02.676Z,9.30
2019-01-16T04:22:02.683Z,8.60
2019-01-16T04:23:02.647Z,9.30
2019-01-16T04:24:02.617Z,9.80
2019-01-16T04:25:02.624Z,9.40
2019-01-16T04:26:02.577Z,8.20
2019-01-16T04:27:02.549Z,8.60
2019-01-16T04:28:02.526Z,8.70
2019-01-16T04:29:02.512Z,9.00
2019-01-16T04:30:02.509Z,8.30
2019-01-16T04:31:02.484Z,8.40
2019-01-16T04:32:02.467Z,8.70
2019-01-16T04:33:02.428Z,9.10
2019-01-16T04:34:02.411Z,8.20
2019-01-16T04:35:02.402Z,8.30
2019-01-16T04:36:02.386Z,8.20
2019-01-16T04:37:02.342Z,9.30
2019-01-16T04:38:02.316Z,8.50
2019-01-16T04:39:02.309Z,10.20
2019-01-16T04:40:02.321Z,8.50
2019-01-16T04:41:02.269Z,8.20
2019-01-16T04:42:02.233Z,8.70
2019-01-16T04:43:02.225Z,10.00
2019-01-16T04:44:02.193Z,8.70
2019-01-16T04:45:02.173Z,8.50
2019-01-16T04:46:02.156Z,8.70
2019-01-16T04:47:02.142Z,8.70
2019-01-16T04:48:02.137Z,8.60
2019-01-16T04:49:02.087Z,9.30
2019-01-16T04:50:02.067Z,8.90
2019-01-16T04:51:02.057Z,10.60
2019-01-16T04:52:02.029Z,10.30
2019-01-16T04:53:02.017Z,9.10
2019-01-16T04:54:02.001Z,8.60
2019-01-16T04:55:01.962Z,8.60
2019-01-16T04:56:01.939Z,9.20
2019-01-16T04:57:01.939Z,9.80
2019-01-16T04:58:01.896Z,9.10
2019-01-16T04:59:01.911Z,8.80
2019-01-16T05:00:01.875Z,9.70
2019-01-16T05:01:01.834Z,10.00
2019-01-16T05:02:01.812Z,9.40
2019-01-16T05:03:01.791Z,8.60
2019-01-16T05:04:01.775Z,9.50
2019-01-16T05:05:02.324Z,8.70
2019-01-16T05:06:01.733Z,8.00
2019-01-16T05:07:01.705Z,8.80
2019-01-16T05:08:01.690Z,8.10
2019-01-16T05:09:01.672Z,8.90
2019-01-16T05:10:01.679Z,8.50
2019-01-16T05:11:01.625Z,8.20
2019-01-16T05:12:01.603Z,8.10
2019-01-16T05:13:01.589Z,7.90
2019-01-16T05:14:01.553Z,8.60
2019-01-16T05:15:01.535Z,8.50
2019-01-16T05:16:01.532Z,8.80
2019-01-16T05:17:01.495Z,8.30
2019-01-16T05:18:01.474Z,7.80
2019-01-16T05:19:01.449Z,8.00
2019-01-16T05:20:01.484Z,7.70
2019-01-16T05:21:01.428Z,7.20
2019-01-16T05:22:01.408Z,8.70
2019-01-16T05:23:01.433Z,7.60
2019-01-16T05:24:01.345Z,7.90
2019-01-16T05:25:01.326Z,7.70
2019-01-16T05:26:01.317Z,7.60
2019-01-16T05:27:01.311Z,7.80
2019-01-16T05:28:01.263Z,7.50
2019-01-16T05:29:01.239Z,7.70
2019-01-16T05:30:01.217Z,7.30
2019-01-16T05:31:01.198Z,7.80
2019-01-16T05:32:01.179Z,7.10
2019-01-16T05:33:01.176Z,7.20
2019-01-16T05:34:01.152Z,7.40
2019-01-16T05:35:01.113Z,6.90
2019-01-16T05:36:01.096Z,7.30
2019-01-16T05:37:01.091Z,6.90
2019-01-16T05:38:01.052Z,7.00
2019-01-16T05:39:01.058Z,7.00
2019-01-16T05:40:01.018Z,7.80
2019-01-16T05:41:00.989Z,6.70
2019-01-16T05:42:00.964Z,6.80
2019-01-16T05:43:00.948Z,7.00
2019-01-16T05:44:00.929Z,6.60
2019-01-16T05:45:00.923Z,6.90
2019-01-16T05:46:00.887Z,6.80
2019-01-16T05:47:00.858Z,6.50
2019-01-16T05:48:00.838Z,6.00
2019-01-16T05:49:00.817Z,7.60
2019-01-16T05:50:00.880Z,7.50
2019-01-16T05:51:00.775Z,7.40
2019-01-16T05:52:00.758Z,6.00
2019-01-16T05:53:00.736Z,7.00
2019-01-16T05:54:00.711Z,6.50
2019-01-16T05:55:00.727Z,6.50
2019-01-16T05:56:00.677Z,6.40
2019-01-16T05:57:00.655Z,6.10
2019-01-16T05:58:00.632Z,5.90
2019-01-16T05:59:00.615Z,6.30
2019-01-16T06:00:00.583Z,5.70
2019-01-16T06:01:00.595Z,8.20
2019-01-16T06:02:01.022Z,7.00
2019-01-16T06:04:55.047Z,6.80
2019-01-16T06:05:54.662Z,6.40
2019-01-16T06:06:54.665Z,5.80
2019-01-16T06:07:54.666Z,6.40
2019-01-16T06:08:54.598Z,6.60
2019-01-16T06:09:54.590Z,5.80
2019-01-16T06:10:54.563Z,5.50
2019-01-16T06:11:54.569Z,5.90
2019-01-16T06:12:54.520Z,5.60
2019-01-16T06:13:54.495Z,6.10
2019-01-16T06:14:54.473Z,5.90
2019-01-16T06:15:54.452Z,5.20
2019-01-16T06:16:54.428Z,5.50
2019-01-16T06:17:54.428Z,5.10
2019-01-16T06:18:54.391Z,5.70
2019-01-16T06:19:54.378Z,5.30
2019-01-16T06:20:54.349Z,5.40
2019-01-16T06:21:54.322Z,5.00
2019-01-16T06:22:54.313Z,5.10
2019-01-16T06:23:54.300Z,5.10
2019-01-16T06:24:54.273Z,5.20
2019-01-16T06:25:54.244Z,5.30
2019-01-16T06:26:54.219Z,5.20
2019-01-16T06:27:54.200Z,6.00
2019-01-16T06:28:54.216Z,6.50
2019-01-16T06:29:54.156Z,5.00
2019-01-16T06:30:54.138Z,5.80
2019-01-16T06:31:54.128Z,5.20
2019-01-16T06:32:54.123Z,6.00
2019-01-16T06:33:54.077Z,4.90
2019-01-16T06:34:54.077Z,5.80
2019-01-16T06:35:54.048Z,4.90
2019-01-16T06:36:54.012Z,4.90
2019-01-16T06:37:53.990Z,4.60
2019-01-16T06:38:53.971Z,6.20
2019-01-16T06:39:53.977Z,5.20
2019-01-16T06:40:53.926Z,6.50
2019-01-16T06:41:53.916Z,5.00
2019-01-16T06:42:53.889Z,5.50
2019-01-16T06:43:53.868Z,5.20
2019-01-16T06:44:53.846Z,4.40
2019-01-16T06:45:53.836Z,4.50
2019-01-16T06:46:53.803Z,5.80
2019-01-16T06:47:53.780Z,5.60
2019-01-16T06:48:53.757Z,4.60
2019-01-16T06:49:53.729Z,5.10
2019-01-16T06:50:53.733Z,4.90
2019-01-16T06:51:53.719Z,4.70
2019-01-16T06:52:53.677Z,5.50
2019-01-16T06:53:53.672Z,5.50
2019-01-16T06:54:53.629Z,5.10
2019-01-16T06:55:53.612Z,4.90
2019-01-16T06:56:53.605Z,5.30
2019-01-16T06:57:53.573Z,4.50
2019-01-16T06:58:53.544Z,4.70
2019-01-16T06:59:53.524Z,6.50
2019-01-16T07:00:53.505Z,4.40
2019-01-16T07:01:53.501Z,4.70
2019-01-16T07:02:53.464Z,4.80
2019-01-16T07:03:53.441Z,4.90
2019-01-16T07:04:53.421Z,5.90
2019-01-16T07:05:53.407Z,5.10
2019-01-16T07:06:53.385Z,5.30
2019-01-16T07:07:53.369Z,4.40
2019-01-16T07:08:53.336Z,4.40
2019-01-16T07:09:53.314Z,4.30
2019-01-16T07:10:53.297Z,5.70
2019-01-16T07:11:53.299Z,4.40
2019-01-16T07:12:53.251Z,5.20
2019-01-16T07:13:53.227Z,4.40
2019-01-16T07:14:57.826Z,4.40
2019-01-16T07:15:53.181Z,4.40
2019-01-16T07:16:53.162Z,4.50
2019-01-16T07:17:53.159Z,5.30
2019-01-16T07:18:53.144Z,4.60
2019-01-16T07:19:53.104Z,5.10
2019-01-16T07:20:53.097Z,6.00
2019-01-16T07:21:53.057Z,5.30
2019-01-16T07:22:53.034Z,4.60
2019-01-16T07:23:53.013Z,4.90
2019-01-16T07:24:53.764Z,4.00
2019-01-16T07:25:52.981Z,4.20
2019-01-16T07:26:52.952Z,5.70
2019-01-16T07:27:52.931Z,4.20
2019-01-16T07:28:52.928Z,4.30
2019-01-16T07:29:52.888Z,5.10
2019-01-16T07:30:52.866Z,4.70
2019-01-16T07:31:52.856Z,4.80
2019-01-16T07:32:52.842Z,4.70
2019-01-16T07:33:52.807Z,4.30
2019-01-16T07:34:52.785Z,4.40
2019-01-16T07:35:52.760Z,4.40
2019-01-16T07:36:52.745Z,6.50
2019-01-16T07:37:53.277Z,5.80
2019-01-16T07:38:52.724Z,4.40
2019-01-16T07:39:52.708Z,4.40
2019-01-16T07:40:52.660Z,4.90
2019-01-16T07:41:52.642Z,3.70
2019-01-16T07:42:52.697Z,4.80
2019-01-16T07:43:52.597Z,3.90
2019-01-16T07:44:52.575Z,4.80
2019-01-16T07:45:52.599Z,5.10
2019-01-16T07:46:52.545Z,4.20
2019-01-16T07:47:52.533Z,4.80
2019-01-16T07:48:52.550Z,5.20
2019-01-16T07:49:52.466Z,4.70
2019-01-16T07:50:52.443Z,4.40
2019-01-16T07:51:52.461Z,3.80
2019-01-16T07:52:52.405Z,5.90
2019-01-16T07:53:52.383Z,5.30
2019-01-16T07:54:52.352Z,5.50
2019-01-16T07:55:52.341Z,4.40
2019-01-16T07:56:52.320Z,5.70
2019-01-16T07:57:52.327Z,4.30
2019-01-16T07:58:52.281Z,5.00
2019-01-16T07:59:52.264Z,4.30
2019-01-16T08:00:52.229Z,4.80
2019-01-16T08:01:52.219Z,5.70
2019-01-16T08:02:52.190Z,4.80
2019-01-16T08:03:52.191Z,4.30
2019-01-16T08:04:52.149Z,5.60
2019-01-16T08:05:52.126Z,4.30
2019-01-16T08:06:52.107Z,4.90
2019-01-16T08:07:52.087Z,4.40
2019-01-16T08:08:52.080Z,4.30
2019-01-16T08:09:52.044Z,5.10
2019-01-16T08:10:52.019Z,5.40
2019-01-16T08:11:52.004Z,5.70
2019-01-16T08:12:51.983Z,6.70
2019-01-16T08:13:51.959Z,6.10
2019-01-16T08:14:51.972Z,5.50
2019-01-16T08:15:51.915Z,4.70
2019-01-16T08:16:51.911Z,4.70
2019-01-16T08:17:51.886Z,5.20
2019-01-16T08:18:51.851Z,4.80
2019-01-16T08:19:51.828Z,5.70
2019-01-16T08:20:51.828Z,5.80
2019-01-16T08:21:51.786Z,5.30
2019-01-16T08:22:51.763Z,6.00
2019-01-16T08:23:51.746Z,5.90
2019-01-16T08:24:51.748Z,6.20
2019-01-16T08:25:51.698Z,6.50
2019-01-16T08:26:51.682Z,6.00
2019-01-16T08:27:51.663Z,8.30
2019-01-16T08:28:51.657Z,6.90
2019-01-16T08:29:51.616Z,6.40
2019-01-16T08:30:51.632Z,8.00
2019-01-16T08:31:51.580Z,7.50
2019-01-16T08:32:51.555Z,7.50
2019-01-16T08:33:51.535Z,7.20
2019-01-16T08:34:51.512Z,7.90
2019-01-16T08:35:51.496Z,7.70
2019-01-16T08:36:51.486Z,9.00
2019-01-16T08:37:51.456Z,7.90
2019-01-16T08:38:51.427Z,8.70
2019-01-16T08:39:51.409Z,8.30
2019-01-16T08:40:51.387Z,8.50
2019-01-16T08:41:51.381Z,8.80
2019-01-16T08:42:51.342Z,10.00
2019-01-16T08:43:51.340Z,10.90
2019-01-16T08:44:51.299Z,11.30
2019-01-16T08:45:51.277Z,10.10
2019-01-16T08:46:51.262Z,10.30
2019-01-16T08:47:51.255Z,10.10
2019-01-16T08:48:51.237Z,11.00
2019-01-16T08:49:51.205Z,11.20
2019-01-16T08:50:51.176Z,10.90
2019-01-16T08:51:51.158Z,11.90
2019-01-16T08:52:51.127Z,11.60
2019-01-16T08:53:51.130Z,12.00
2019-01-16T08:54:51.090Z,11.60
2019-01-16T08:55:51.065Z,12.60
2019-01-16T08:56:51.044Z,12.90
2019-01-16T08:57:51.033Z,12.40
2019-01-16T08:58:51.023Z,15.00
2019-01-16T08:59:50.981Z,14.10
2019-01-16T09:00:50.962Z,13.30
2019-01-16T09:01:50.939Z,12.80
2019-01-16T09:02:50.920Z,13.50
2019-01-16T09:03:50.901Z,12.80
2019-01-16T09:04:51.342Z,13.90
2019-01-16T09:05:51.821Z,13.70
2019-01-16T09:06:50.898Z,13.80
2019-01-16T09:07:50.896Z,14.00
2019-01-16T09:08:50.845Z,13.80
2019-01-16T09:09:50.883Z,15.30
2019-01-16T09:10:50.904Z,13.50
2019-01-16T09:11:50.758Z,13.40
2019-01-16T09:12:50.892Z,13.60
2019-01-16T09:13:51.244Z,13.40
2019-01-16T09:14:50.665Z,12.80
2019-01-16T09:15:50.641Z,14.10
2019-01-16T09:16:50.618Z,14.80
2019-01-16T09:17:50.599Z,14.60
2019-01-16T09:18:50.579Z,13.60
2019-01-16T09:19:50.579Z,14.10
2019-01-16T09:20:50.542Z,13.30
2019-01-16T09:21:50.514Z,12.90
2019-01-16T09:22:50.550Z,13.40
2019-01-16T09:23:50.480Z,13.50
2019-01-16T09:24:50.474Z,14.70
2019-01-16T09:25:50.430Z,13.10
2019-01-16T09:26:50.421Z,14.10
2019-01-16T09:27:50.393Z,13.20
2019-01-16T09:28:50.366Z,13.70
2019-01-16T09:29:50.363Z,15.90
2019-01-16T09:30:50.345Z,14.10
2019-01-16T09:31:50.308Z,12.50
2019-01-16T09:32:50.297Z,12.20
2019-01-16T09:33:50.273Z,12.40
2019-01-16T09:34:50.241Z,13.30
2019-01-16T09:35:50.237Z,12.40
2019-01-16T09:36:50.207Z,12.80
2019-01-16T09:37:50.174Z,13.40
2019-01-16T09:38:50.155Z,12.00
2019-01-16T09:39:50.139Z,13.40
2019-01-16T09:40:50.135Z,12.20
2019-01-16T09:41:50.094Z,10.50
2019-01-16T09:42:50.075Z,11.70
2019-01-16T09:43:50.069Z,12.60
2019-01-16T09:44:50.043Z,10.00
2019-01-16T09:45:50.015Z,10.80
2019-01-16T09:46:49.992Z,12.50
2019-01-16T09:47:49.994Z,11.30
2019-01-16T09:48:49.947Z,11.50
2019-01-16T09:49:49.926Z,10.10
2019-01-16T09:50:49.911Z,10.30
2019-01-16T09:51:49.919Z,11.70
2019-01-16T09:52:49.871Z,11.20
2019-01-16T09:53:50.863Z,10.70
2019-01-16T09:54:49.823Z,10.20
2019-01-16T09:55:49.808Z,9.40
2019-01-16T09:56:49.786Z,10.20
2019-01-16T09:57:49.783Z,11.50
2019-01-16T09:58:49.807Z,10.70
2019-01-16T09:59:49.736Z,9.70
2019-01-16T10:00:49.709Z,9.60
2019-01-16T10:01:49.676Z,10.60
2019-01-16T10:02:49.706Z,11.30
2019-01-16T10:03:49.629Z,9.90
2019-01-16T10:04:49.687Z,10.70
2019-01-16T10:05:49.603Z,10.20
2019-01-16T10:06:49.568Z,10.40
2019-01-16T10:07:49.551Z,10.70
2019-01-16T10:08:49.569Z,10.90
2019-01-16T10:09:49.515Z,12.00
2019-01-16T10:10:49.521Z,10.60
2019-01-16T10:11:49.467Z,10.50
2019-01-16T10:12:49.442Z,10.10
2019-01-16T10:13:49.431Z,8.50
2019-01-16T10:14:49.404Z,9.00
2019-01-16T10:15:49.401Z,9.10
2019-01-16T10:16:49.359Z,9.70
2019-01-16T10:17:49.349Z,10.20
2019-01-16T10:18:49.318Z,9.60
2019-01-16T10:19:49.297Z,8.40
2019-01-16T10:20:55.539Z,9.50
2019-01-16T10:21:49.264Z,10.60
2019-01-16T10:22:49.243Z,8.00
2019-01-16T10:23:49.213Z,8.20
2019-01-16T10:24:49.192Z,9.40
2019-01-16T10:25:49.172Z,11.10
2019-01-16T10:26:49.171Z,8.80
2019-01-16T10:27:49.134Z,9.50
2019-01-16T10:28:49.128Z,10.00
2019-01-16T10:29:49.090Z,9.30
2019-01-16T10:30:49.064Z,9.40
2019-01-16T10:31:49.064Z,8.00
2019-01-16T10:32:49.044Z,9.60
2019-01-16T10:33:49.019Z,9.00
2019-01-16T10:34:48.985Z,10.40
2019-01-16T10:35:48.961Z,11.30
2019-01-16T10:36:48.938Z,9.60
2019-01-16T10:37:48.933Z,11.40
2019-01-16T10:38:48.896Z,9.60
2019-01-16T10:39:48.876Z,11.00
2019-01-16T10:40:48.882Z,11.80
2019-01-16T10:41:48.833Z,9.60
2019-01-16T10:42:48.832Z,7.80
2019-01-16T10:43:48.795Z,11.70
2019-01-16T10:44:48.773Z,9.90
2019-01-16T10:45:48.747Z,10.20
2019-01-16T10:46:48.729Z,10.50
2019-01-16T10:47:48.723Z,11.50
2019-01-16T10:48:49.784Z,8.50
2019-01-16T10:49:48.664Z,9.90
2019-01-16T10:50:48.645Z,11.70
2019-01-16T10:51:48.622Z,10.30
2019-01-16T10:52:48.628Z,10.80
2019-01-16T10:53:48.583Z,11.70
2019-01-16T10:54:48.560Z,9.40
2019-01-16T10:55:48.544Z,9.00
2019-01-16T10:56:48.521Z,10.40
2019-01-16T10:57:48.503Z,10.90
2019-01-16T10:58:48.504Z,9.90
2019-01-16T10:59:48.456Z,11.60
2019-01-16T11:00:48.448Z,11.60
2019-01-16T11:01:48.412Z,11.30
2019-01-16T11:02:48.393Z,9.90
2019-01-16T11:03:48.398Z,10.70
2019-01-16T11:04:48.373Z,10.20
2019-01-16T11:05:48.335Z,10.10
2019-01-16T11:06:48.314Z,11.20
2019-01-16T11:07:48.296Z,12.40
2019-01-16T11:08:48.293Z,8.00
2019-01-16T11:09:48.254Z,10.30
2019-01-16T11:10:48.229Z,10.30
2019-01-16T11:11:48.211Z,11.00
2019-01-16T11:12:48.206Z,11.40
2019-01-16T11:13:48.165Z,10.60
2019-01-16T11:14:48.166Z,9.60
2019-01-16T11:15:48.128Z,10.90
2019-01-16T11:16:48.103Z,10.40
2019-01-16T11:17:48.117Z,9.90
2019-01-16T11:18:48.065Z,9.30
2019-01-16T11:19:48.042Z,8.80
2019-01-16T11:20:48.041Z,11.00
2019-01-16T11:21:48.005Z,9.70
2019-01-16T11:22:47.985Z,12.10
2019-01-16T11:23:47.964Z,11.20
2019-01-16T11:24:47.942Z,10.10
2019-01-16T11:25:47.927Z,12.50
2019-01-16T11:26:47.926Z,11.00
2019-01-16T11:27:47.883Z,10.70
2019-01-16T11:28:47.867Z,12.40
2019-01-16T11:29:47.849Z,10.10
2019-01-16T11:30:47.820Z,12.30
2019-01-16T11:31:47.834Z,10.40
2019-01-16T11:32:47.781Z,12.10
2019-01-16T11:33:47.757Z,11.30
2019-01-16T11:34:47.734Z,11.50
2019-01-16T11:35:47.719Z,8.90
2019-01-16T11:36:47.696Z,11.00
2019-01-16T11:37:47.725Z,12.50
2019-01-16T11:38:47.655Z,11.00
2019-01-16T11:39:47.630Z,11.50
2019-01-16T11:40:47.629Z,12.40
2019-01-16T11:41:47.593Z,11.20
2019-01-16T11:42:47.569Z,12.20
2019-01-16T11:43:47.552Z,11.30
2019-01-16T11:44:47.548Z,11.80
2019-01-16T11:45:47.530Z,12.10
2019-01-16T11:46:47.485Z,12.30
2019-01-16T11:47:47.468Z,13.20
2019-01-16T11:48:47.443Z,12.10
2019-01-16T11:49:47.455Z,12.10
2019-01-16T11:50:47.408Z,12.80
2019-01-16T11:51:47.383Z,12.70
2019-01-16T11:52:47.371Z,11.90
2019-01-16T11:53:47.341Z,11.30
2019-01-16T11:54:47.332Z,13.90
2019-01-16T11:55:47.316Z,11.90
2019-01-16T11:56:47.279Z,11.60
2019-01-16T11:57:47.255Z,11.90
2019-01-16T11:58:47.249Z,12.30
2019-01-16T11:59:47.220Z,13.10
2019-01-16T12:00:47.212Z,13.40
2019-01-16T12:01:47.181Z,13.20
2019-01-16T12:02:47.160Z,14.10
2019-01-16T12:03:47.130Z,11.90
2019-01-16T12:04:48.729Z,11.00
2019-01-16T12:05:47.087Z,11.00
2019-01-16T12:06:47.098Z,12.20
2019-01-16T12:07:47.121Z,16.20
2019-01-16T12:08:47.034Z,12.20
2019-01-16T12:09:47.040Z,10.90
2019-01-16T12:10:46.982Z,12.60
2019-01-16T12:11:46.977Z,10.80
2019-01-16T12:12:49.356Z,15.80
2019-01-16T12:13:46.941Z,11.90
2019-01-16T12:14:46.901Z,11.80
2019-01-16T12:15:46.892Z,11.50
2019-01-16T12:16:46.861Z,14.10
2019-01-16T12:17:46.845Z,11.90
2019-01-16T12:18:46.834Z,10.70
2019-01-16T12:19:46.795Z,12.50
2019-01-16T12:20:46.775Z,12.20
2019-01-16T12:21:46.759Z,12.30
2019-01-16T12:22:46.749Z,11.30
2019-01-16T12:23:46.729Z,14.60
2019-01-16T12:24:46.701Z,10.90
2019-01-16T12:25:46.691Z,10.30
2019-01-16T12:26:46.657Z,13.70
2019-01-16T12:27:46.690Z,12.40
2019-01-16T12:28:46.877Z,12.30
2019-01-16T12:29:46.591Z,11.20
2019-01-16T12:30:46.576Z,11.70
2019-01-16T12:31:46.541Z,10.20
2019-01-16T12:32:46.520Z,11.00
2019-01-16T12:33:46.520Z,10.60
2019-01-16T12:34:46.480Z,9.70
2019-01-16T12:35:46.463Z,10.80
2019-01-16T12:36:46.450Z,12.50
2019-01-16T12:37:46.412Z,10.90
2019-01-16T12:38:46.393Z,11.90
2019-01-16T12:39:46.397Z,11.60
2019-01-16T12:40:46.350Z,11.80
2019-01-16T12:41:46.332Z,9.70
2019-01-16T12:42:46.321Z,10.60
2019-01-16T12:43:46.292Z,12.90
2019-01-16T12:44:46.272Z,11.90
2019-01-16T12:45:46.274Z,10.50
2019-01-16T12:46:46.246Z,12.90
2019-01-16T12:47:46.203Z,11.00
2019-01-16T12:48:46.191Z,11.60
2019-01-16T12:49:46.164Z,9.40
2019-01-16T12:50:46.147Z,10.90
2019-01-16T12:51:46.124Z,11.30
2019-01-16T12:52:46.119Z,9.20
2019-01-16T12:53:46.084Z,9.70
2019-01-16T12:54:46.059Z,11.30
2019-01-16T12:55:46.040Z,10.10
2019-01-16T12:56:46.049Z,9.40
2019-01-16T12:57:45.991Z,9.60
2019-01-16T12:58:45.970Z,12.40
2019-01-16T12:59:45.971Z,10.10
2019-01-16T13:00:45.933Z,10.20
2019-01-16T13:01:45.910Z,10.90
2019-01-16T13:02:45.901Z,9.50
2019-01-16T13:03:45.889Z,11.20
2019-01-16T13:04:45.849Z,10.80
2019-01-16T13:07:27.764Z,11.40
2019-01-16T13:08:27.729Z,13.80
2019-01-16T13:09:27.703Z,9.40